Time;durP1;ratioP1;P1;durP2;ratioP2;P2;SDS_P1;SDS_P2;PMS_P1;PMS_P2;Temp;Humidity;BMP_temperature;BMP_pressure;BME280_temperature;BME280_humidity;BME280_pressure;Samples;Min_cycle;Max_cycle;Signal;HPM_P1;HPM_P2
2023/08/12 00:00:11;;;;;;;10.88;7.13;;;;;;;20.88;100.00;100580.56;5079941;28;20036;-71
2023/08/12 00:02:43;;;;;;;9.00;7.00;;;;;;;20.90;100.00;100573.22;5066613;28;20124;-71
2023/08/12 00:05:12;;;;;;;7.68;6.70;;;;;;;20.86;100.00;100559.16;5044466;28;20049;-71
2023/08/12 00:07:42;;;;;;;9.25;7.03;;;;;;;20.89;100.00;100561.59;5059286;28;20047;-71
2023/08/12 00:10:11;;;;;;;12.60;7.35;;;;;;;20.87;100.00;100568.09;5061091;28;20142;-71
2023/08/12 00:12:39;;;;;;;7.68;6.15;;;;;;;20.90;100.00;100571.38;5064826;28;20397;-71
2023/08/12 00:15:10;;;;;;;9.98;7.07;;;;;;;20.87;100.00;100560.00;5049065;28;20060;-71
2023/08/12 00:17:41;;;;;;;10.40;7.43;;;;;;;20.90;100.00;100565.13;5050015;28;20045;-71
2023/08/12 00:20:10;;;;;;;6.90;6.22;;;;;;;20.86;100.00;100551.06;5054776;28;20067;-70
2023/08/12 00:22:41;;;;;;;7.15;6.45;;;;;;;20.91;100.00;100556.94;5052686;28;20056;-70
2023/08/12 00:25:09;;;;;;;7.07;6.20;;;;;;;20.91;100.00;100551.53;5048916;28;20098;-70
2023/08/12 00:27:38;;;;;;;8.82;6.70;;;;;;;20.92;100.00;100547.00;5051200;28;20048;-70
2023/08/12 00:30:07;;;;;;;8.73;6.50;;;;;;;20.94;100.00;100545.88;5050095;28;20047;-70
2023/08/12 00:32:35;;;;;;;9.07;6.43;;;;;;;20.94;100.00;100545.00;5052096;28;20037;-69
2023/08/12 00:35:03;;;;;;;9.80;6.80;;;;;;;20.92;100.00;100531.72;5045291;28;20053;-70
2023/08/12 00:37:31;;;;;;;8.70;6.90;;;;;;;20.97;100.00;100533.97;5055343;28;20065;-71
2023/08/12 00:40:01;;;;;;;9.25;7.22;;;;;;;20.92;100.00;100529.03;5050032;28;20064;-71
2023/08/12 00:42:29;;;;;;;8.75;6.97;;;;;;;20.94;100.00;100527.03;5054595;28;20047;-71
2023/08/12 00:44:57;;;;;;;7.82;6.70;;;;;;;20.94;100.00;100528.84;5053733;28;20467;-71
2023/08/12 00:47:25;;;;;;;9.65;6.78;;;;;;;20.86;100.00;100509.84;5056834;28;20405;-71
2023/08/12 00:49:56;;;;;;;7.60;6.65;;;;;;;20.89;100.00;100512.28;5036833;28;20071;-71
2023/08/12 00:52:23;;;;;;;6.78;6.07;;;;;;;20.90;100.00;100514.84;5070862;28;20052;-70
2023/08/12 00:54:51;;;;;;;7.47;6.13;;;;;;;20.90;100.00;100509.47;5054172;28;20052;-70
2023/08/12 00:57:21;;;;;;;8.20;6.20;;;;;;;20.90;100.00;100503.22;5060592;28;20230;-71
2023/08/12 00:59:50;;;;;;;10.40;6.65;;;;;;;20.82;100.00;100501.19;5054564;28;20409;-70
2023/08/12 01:02:18;;;;;;;8.77;6.78;;;;;;;20.86;100.00;100505.31;5055858;28;20040;-70
2023/08/12 01:04:46;;;;;;;9.63;6.60;;;;;;;20.84;100.00;100501.06;5052061;28;20420;-71
2023/08/12 01:07:15;;;;;;;12.43;7.18;;;;;;;20.77;100.00;100505.28;5046623;28;20040;-70
2023/08/12 01:09:43;;;;;;;9.30;6.75;;;;;;;20.74;100.00;100506.41;5062272;28;20044;-72
2023/08/12 01:12:16;;;;;;;9.50;7.20;;;;;;;20.70;100.00;100499.59;5056067;28;20049;-71
2023/08/12 01:14:51;;;;;;;12.07;7.30;;;;;;;20.71;100.00;100505.81;5050603;28;20885;-71
2023/08/12 01:17:20;;;;;;;10.13;6.80;;;;;;;20.67;100.00;100500.69;5057559;28;20098;-71
2023/08/12 01:19:50;;;;;;;9.23;7.15;;;;;;;20.61;100.00;100495.88;5055399;28;20045;-71
2023/08/12 01:22:22;;;;;;;10.00;7.25;;;;;;;20.55;100.00;100496.38;5039459;28;20040;-71
2023/08/12 01:24:53;;;;;;;8.30;7.10;;;;;;;20.53;100.00;100487.59;5048703;28;20042;-70
2023/08/12 01:27:25;;;;;;;9.65;7.00;;;;;;;20.54;100.00;100481.22;5055260;28;20048;-72
2023/08/12 01:29:53;;;;;;;8.23;6.95;;;;;;;20.50;100.00;100477.09;5054415;28;20550;-70
2023/08/12 01:32:29;;;;;;;8.45;6.45;;;;;;;20.47;100.00;100480.03;5061698;28;20052;-70
2023/08/12 01:35:04;;;;;;;8.45;6.85;;;;;;;20.47;100.00;100477.34;5049191;28;20622;-71
2023/08/12 01:37:33;;;;;;;9.45;7.53;;;;;;;20.48;100.00;100483.59;5060010;28;20110;-70
2023/08/12 01:40:05;;;;;;;10.32;6.95;;;;;;;20.45;100.00;100489.25;5053164;28;20041;-69
2023/08/12 01:42:34;;;;;;;7.55;6.75;;;;;;;20.45;100.00;100484.75;5052207;28;20462;-70
2023/08/12 01:45:03;;;;;;;9.40;6.35;;;;;;;20.48;100.00;100484.44;5055526;28;20132;-70
2023/08/12 01:47:31;;;;;;;11.73;7.00;;;;;;;20.51;100.00;100483.31;5070811;28;20049;-70
2023/08/12 01:49:59;;;;;;;7.65;6.07;;;;;;;20.49;100.00;100483.47;5061644;28;20400;-71
2023/08/12 01:52:27;;;;;;;8.60;6.88;;;;;;;20.37;100.00;100464.84;5072112;28;20504;-71
2023/08/12 01:54:56;;;;;;;8.30;6.15;;;;;;;20.48;100.00;100472.84;5051631;28;20098;-71
2023/08/12 01:57:25;;;;;;;10.80;5.88;;;;;;;20.57;100.00;100478.28;5058773;28;20051;-72
2023/08/12 01:59:53;;;;;;;8.20;6.13;;;;;;;20.55;100.00;100485.63;5072617;28;20859;-72
2023/08/12 02:02:21;;;;;;;8.45;6.68;;;;;;;20.51;100.00;100484.19;5054490;28;20057;-71
2023/08/12 02:04:49;;;;;;;8.52;5.95;;;;;;;20.49;100.00;100478.09;5053260;28;20147;-71
2023/08/12 02:07:17;;;;;;;10.07;6.68;;;;;;;20.51;100.00;100484.19;5055650;28;20501;-70
2023/08/12 02:09:45;;;;;;;7.40;6.40;;;;;;;20.54;100.00;100492.00;5041969;28;20076;-72
2023/08/12 02:12:13;;;;;;;10.18;6.28;;;;;;;20.51;100.00;100486.88;5056947;28;20530;-70
2023/08/12 02:14:44;;;;;;;10.38;5.90;;;;;;;20.50;100.00;100474.41;5052068;28;20044;-70
2023/08/12 02:17:12;;;;;;;7.57;6.30;;;;;;;20.55;100.00;100474.88;5056661;28;20049;-72
2023/08/12 02:19:40;;;;;;;8.00;6.18;;;;;;;20.48;100.00;100470.13;5053447;28;20413;-71
2023/08/12 02:22:10;;;;;;;9.32;6.10;;;;;;;20.49;100.00;100475.38;5067578;28;20416;-71
2023/08/12 02:24:37;;;;;;;8.60;6.00;;;;;;;20.45;100.00;100468.59;5035325;28;20053;-70
2023/08/12 02:27:06;;;;;;;8.73;6.38;;;;;;;20.42;100.00;100466.16;5053037;28;20048;-71
2023/08/12 02:29:34;;;;;;;8.60;6.10;;;;;;;20.53;100.00;100486.75;5055517;28;20492;-70
2023/08/12 02:32:04;;;;;;;6.45;5.75;;;;;;;20.55;100.00;100491.00;5047780;28;20045;-70
2023/08/12 02:34:32;;;;;;;8.73;6.82;;;;;;;20.53;100.00;100494.81;5053274;28;20045;-71
2023/08/12 02:37:00;;;;;;;9.25;5.93;;;;;;;20.48;100.00;100489.81;5062293;28;20048;-72
2023/08/12 02:39:30;;;;;;;6.85;6.07;;;;;;;20.49;100.00;100491.53;5060979;28;20518;-71
2023/08/12 02:41:59;;;;;;;9.07;7.20;;;;;;;20.44;100.00;100487.56;5038290;28;20108;-71
2023/08/12 02:44:27;;;;;;;8.52;6.45;;;;;;;20.45;100.00;100503.56;5052035;28;20041;-72
2023/08/12 02:46:55;;;;;;;8.40;7.30;;;;;;;20.43;100.00;100507.38;5051197;28;20057;-70
2023/08/12 02:49:25;;;;;;;9.10;6.95;;;;;;;20.43;100.00;100529.75;5052615;28;20041;-71
2023/08/12 02:51:53;;;;;;;13.00;8.18;;;;;;;20.40;100.00;100532.69;5044656;28;20036;-70
2023/08/12 02:54:21;;;;;;;12.95;7.40;;;;;;;20.33;100.00;100552.97;5042646;28;20051;-70
2023/08/12 02:56:51;;;;;;;13.82;7.55;;;;;;;20.30;100.00;100553.25;5039719;28;20488;-69
2023/08/12 02:59:18;;;;;;;11.13;7.05;;;;;;;20.29;100.00;100535.41;5023039;28;20045;-70
2023/08/12 03:01:46;;;;;;;10.38;7.70;;;;;;;20.25;100.00;100539.34;5048867;28;20118;-69
2023/08/12 03:04:14;;;;;;;13.00;8.80;;;;;;;20.04;100.00;100528.56;5039044;28;20051;-70
2023/08/12 03:06:43;;;;;;;11.82;8.07;;;;;;;19.84;100.00;100519.47;5057116;28;20052;-71
2023/08/12 03:09:11;;;;;;;11.93;8.35;;;;;;;19.73;100.00;100534.78;5039710;28;20052;-71
2023/08/12 03:11:41;;;;;;;11.02;8.50;;;;;;;19.56;100.00;100523.59;5052268;28;20037;-71
2023/08/12 03:14:11;;;;;;;10.32;8.52;;;;;;;19.51;100.00;100524.97;5052936;28;20041;-71
2023/08/12 03:16:39;;;;;;;12.57;8.88;;;;;;;19.44;100.00;100529.94;5060254;28;20098;-71
2023/08/12 03:19:07;;;;;;;11.30;9.00;;;;;;;19.38;100.00;100521.53;5041908;28;20045;-72
2023/08/12 03:21:35;;;;;;;11.10;8.48;;;;;;;19.37;100.00;100526.03;5052296;28;20584;-72
2023/08/12 03:24:07;;;;;;;10.88;8.77;;;;;;;19.36;100.00;100534.25;5061571;28;20051;-72
2023/08/12 03:26:35;;;;;;;11.32;8.93;;;;;;;19.32;100.00;100527.41;5063047;28;20116;-72
2023/08/12 03:29:03;;;;;;;11.90;9.65;;;;;;;19.32;100.00;100530.09;5065035;28;20539;-72
2023/08/12 03:31:36;;;;;;;12.32;9.38;;;;;;;19.22;100.00;100520.09;5056095;28;20045;-72
2023/08/12 03:34:05;;;;;;;;;;;;;;;19.30;100.00;100526.69;5058195;28;20056;-73
2023/08/12 03:36:33;;;;;;;12.55;9.85;;;;;;;19.30;100.00;100538.28;5068805;28;19927;-72
2023/08/12 03:39:01;;;;;;;10.60;9.48;;;;;;;19.31;100.00;100525.72;5060202;28;20068;-72
2023/08/12 03:41:32;;;;;;;13.75;10.32;;;;;;;19.32;100.00;100519.38;5056015;28;21436;-72
2023/08/12 03:44:05;;;;;;;11.43;9.52;;;;;;;19.23;100.00;100505.69;5056994;28;20076;-73
2023/08/12 03:46:33;;;;;;;12.65;10.40;;;;;;;19.27;100.00;100500.94;5056346;28;20053;-74
2023/08/12 03:49:02;;;;;;;14.10;10.90;;;;;;;19.30;100.00;100511.44;5036993;28;20041;-72
2023/08/12 03:51:31;;;;;;;13.52;11.18;;;;;;;19.29;100.00;100515.09;5048663;28;20049;-73
2023/08/12 03:53:59;;;;;;;14.35;12.10;;;;;;;19.30;100.00;100510.56;5051359;28;20052;-74
2023/08/12 03:56:28;;;;;;;22.08;12.48;;;;;;;19.24;100.00;100506.53;5042771;28;20131;-74
2023/08/12 03:58:57;;;;;;;14.88;13.25;;;;;;;19.28;100.00;100503.50;5051309;28;20041;-73
2023/08/12 04:01:25;;;;;;;12.80;11.43;;;;;;;19.23;100.00;100489.59;5053874;28;20048;-73
2023/08/12 04:03:54;;;;;;;13.60;11.50;;;;;;;19.25;100.00;100492.16;5055806;28;20033;-72
2023/08/12 04:06:22;;;;;;;14.18;11.15;;;;;;;19.24;100.00;100491.28;5062978;28;20064;-73
2023/08/12 04:08:50;;;;;;;13.82;11.18;;;;;;;19.27;100.00;100498.25;5072076;28;20036;-72
2023/08/12 04:11:18;;;;;;;14.00;11.52;;;;;;;19.21;100.00;100502.28;5049567;28;20049;-74
2023/08/12 04:13:46;;;;;;;15.93;11.25;;;;;;;19.17;100.00;100506.22;5056861;28;20113;-74
2023/08/12 04:16:15;;;;;;;12.75;10.35;;;;;;;19.17;100.00;100500.84;5065709;28;20055;-73
2023/08/12 04:18:43;;;;;;;14.67;11.63;;;;;;;19.16;100.00;100490.22;5054535;28;20040;-75
2023/08/12 04:21:12;;;;;;;12.95;10.63;;;;;;;19.16;100.00;100471.44;5062133;28;20259;-73
2023/08/12 04:23:40;;;;;;;13.00;10.98;;;;;;;19.14;100.00;100460.81;5051716;28;20401;-74
2023/08/12 04:26:08;;;;;;;14.80;11.45;;;;;;;19.11;100.00;100453.00;5042398;28;21327;-76
2023/08/12 04:28:38;;;;;;;14.75;11.30;;;;;;;19.05;100.00;100453.50;5055513;28;20048;-74
2023/08/12 04:31:07;;;;;;;14.20;10.43;;;;;;;18.90;100.00;100463.63;5055115;28;20055;-74
2023/08/12 04:33:41;;;;;;;13.52;10.07;;;;;;;18.95;100.00;100473.16;5056860;28;20047;-75
2023/08/12 04:36:10;;;;;;;13.40;11.07;;;;;;;18.93;100.00;100481.31;5058151;28;20501;-73
2023/08/12 04:38:40;;;;;;;15.45;10.40;;;;;;;18.96;100.00;100488.28;5060072;28;20502;-75
2023/08/12 04:41:11;;;;;;;14.73;11.75;;;;;;;18.97;100.00;100492.69;5072023;28;20059;-75
2023/08/12 04:43:39;;;;;;;12.70;11.40;;;;;;;18.98;100.00;100495.25;5037878;28;20382;-74
2023/08/12 04:46:08;;;;;;;13.63;12.15;;;;;;;18.83;100.00;100445.50;5055066;28;20118;-72
2023/08/12 04:48:36;;;;;;;14.82;11.82;;;;;;;18.96;100.00;100450.72;5061592;28;20436;-72
2023/08/12 04:51:06;;;;;;;14.00;12.15;;;;;;;19.05;100.00;100458.88;5045242;28;20052;-75
2023/08/12 04:53:36;;;;;;;18.02;13.05;;;;;;;19.08;100.00;100465.81;5071808;28;20041;-73
2023/08/12 04:56:06;;;;;;;12.98;11.60;;;;;;;19.10;100.00;100458.50;5044965;28;20096;-74
2023/08/12 04:58:34;;;;;;;13.43;11.25;;;;;;;19.12;100.00;100464.59;5064463;28;20094;-73
2023/08/12 05:01:02;;;;;;;14.57;12.32;;;;;;;19.13;100.00;100456.41;5065522;28;20049;-74
2023/08/12 05:03:31;;;;;;;16.02;13.23;;;;;;;19.09;100.00;100446.91;5048832;28;20060;-75
2023/08/12 05:06:00;;;;;;;13.93;12.43;;;;;;;19.17;100.00;100467.78;5059180;28;20622;-73
2023/08/12 05:08:36;;;;;;;16.98;13.43;;;;;;;19.16;100.00;100456.19;5055618;28;20420;-74
2023/08/12 05:11:05;;;;;;;13.38;11.43;;;;;;;19.21;100.00;100462.00;5064766;28;20408;-75
2023/08/12 05:13:33;;;;;;;15.60;13.65;;;;;;;19.26;100.00;100461.63;5053667;28;20099;-74
2023/08/12 05:16:01;;;;;;;18.83;13.80;;;;;;;19.32;100.00;100466.50;5044366;28;20144;-74
2023/08/12 05:18:29;;;;;;;17.63;15.05;;;;;;;19.38;100.00;100465.13;5061954;28;20131;-74
2023/08/12 05:20:58;;;;;;;18.05;14.98;;;;;;;19.38;100.00;100460.63;5057438;28;20631;-74
2023/08/12 05:23:27;;;;;;;19.98;14.27;;;;;;;19.37;100.00;100455.38;5068960;28;20097;-73
2023/08/12 05:25:59;;;;;;;16.55;14.10;;;;;;;19.49;100.00;100455.28;5060815;28;20045;-75
2023/08/12 05:28:27;;;;;;;15.48;13.70;;;;;;;19.54;100.00;100452.19;5043069;28;20063;-75
2023/08/12 05:30:55;;;;;;;14.57;13.05;;;;;;;19.63;100.00;100447.88;5054386;28;20151;-74
2023/08/12 05:33:23;;;;;;;17.52;13.25;;;;;;;19.71;100.00;100462.38;5052635;28;20471;-74
2023/08/12 05:35:51;;;;;;;16.27;14.15;;;;;;;19.76;100.00;100460.16;5057449;28;20048;-75
2023/08/12 05:38:20;;;;;;;16.95;14.00;;;;;;;19.79;100.00;100446.47;5047452;28;20106;-73
2023/08/12 05:40:48;;;;;;;16.52;13.63;;;;;;;19.83;100.00;100450.56;5054299;28;20528;-73
2023/08/12 05:43:18;;;;;;;15.00;13.45;;;;;;;19.92;100.00;100447.13;5052663;28;20041;-72
2023/08/12 05:45:46;;;;;;;15.45;13.23;;;;;;;19.93;100.00;100464.97;5053883;28;20045;-75
2023/08/12 05:48:15;;;;;;;15.23;11.77;;;;;;;19.87;100.00;100457.41;5039225;28;20041;-74
2023/08/12 05:50:43;;;;;;;12.93;11.50;;;;;;;19.83;100.00;100464.00;5059483;28;20037;-75
2023/08/12 05:53:11;;;;;;;15.82;12.15;;;;;;;19.73;100.00;100460.41;5050938;28;20060;-73
2023/08/12 05:55:39;;;;;;;13.77;11.80;;;;;;;19.67;100.00;100471.69;5043616;28;20099;-73
2023/08/12 05:58:08;;;;;;;14.75;11.25;;;;;;;19.62;100.00;100468.53;5069955;28;20045;-75
2023/08/12 06:00:38;;;;;;;12.82;10.93;;;;;;;19.42;100.00;100463.91;5039864;28;20260;-75
2023/08/12 06:03:05;;;;;;;12.35;10.80;;;;;;;19.46;100.00;100486.84;5041804;28;20106;-74
2023/08/12 06:05:34;;;;;;;14.38;9.98;;;;;;;19.51;100.00;100498.13;5060186;28;20057;-75
2023/08/12 06:08:02;;;;;;;13.50;10.85;;;;;;;19.59;100.00;100503.69;5042282;28;20060;-74
2023/08/12 06:10:31;;;;;;;14.20;10.65;;;;;;;19.60;100.00;100491.97;5057524;28;20052;-75
2023/08/12 06:12:59;;;;;;;14.97;9.90;;;;;;;19.60;100.00;100481.22;5046109;28;20049;-74
2023/08/12 06:15:27;;;;;;;10.95;9.85;;;;;;;19.65;100.00;100486.22;5043846;28;20150;-75
2023/08/12 06:17:57;;;;;;;12.48;11.00;;;;;;;19.71;100.00;100485.69;5054433;28;20056;-74
2023/08/12 06:20:25;;;;;;;16.97;11.90;;;;;;;19.77;100.00;100493.25;5058189;28;20110;-74
2023/08/12 06:22:53;;;;;;;12.45;10.05;;;;;;;19.83;100.00;100500.81;5037205;28;20466;-73
2023/08/12 06:25:21;;;;;;;12.50;10.40;;;;;;;19.95;100.00;100491.72;5045316;28;20088;-73
2023/08/12 06:27:49;;;;;;;11.43;9.23;;;;;;;20.18;100.00;100497.81;5061456;28;20044;-73
2023/08/12 06:30:18;;;;;;;12.70;8.70;;;;;;;20.42;100.00;100495.75;5037974;28;20044;-75
2023/08/12 06:32:45;;;;;;;9.98;8.65;;;;;;;20.76;100.00;100492.81;5058381;28;20094;-74
2023/08/12 06:35:14;;;;;;;10.85;8.82;;;;;;;20.95;100.00;100498.25;5057439;28;20515;-74
2023/08/12 06:37:42;;;;;;;10.00;8.20;;;;;;;20.95;100.00;100509.03;5056746;28;20060;-73
2023/08/12 06:40:11;;;;;;;11.43;9.30;;;;;;;20.97;100.00;100509.75;5053728;28;20504;-73
2023/08/12 06:42:39;;;;;;;10.55;8.70;;;;;;;21.12;100.00;100508.38;5055704;28;20056;-74
2023/08/12 06:45:08;;;;;;;10.05;8.90;;;;;;;21.17;100.00;100513.38;5051105;28;20048;-73
2023/08/12 06:47:36;;;;;;;8.13;7.30;;;;;;;21.12;100.00;100503.00;5049812;28;20044;-73
2023/08/12 06:50:05;;;;;;;11.05;9.50;;;;;;;21.19;100.00;100487.16;5055623;28;20102;-74
2023/08/12 06:52:34;;;;;;;12.98;8.88;;;;;;;21.52;100.00;100491.38;5057222;28;20052;-73
2023/08/12 06:55:02;;;;;;;10.05;8.43;;;;;;;21.84;100.00;100497.34;5052253;28;20176;-73
2023/08/12 06:57:30;;;;;;;10.20;8.13;;;;;;;21.80;100.00;100457.34;5042836;28;20516;-74
2023/08/12 06:59:58;;;;;;;11.82;8.57;;;;;;;22.04;100.00;100477.50;5053714;28;20135;-75
2023/08/12 07:02:27;;;;;;;8.88;7.97;;;;;;;22.17;100.00;100479.06;5059867;28;20068;-74
2023/08/12 07:04:55;;;;;;;10.25;8.15;;;;;;;22.44;100.00;100489.09;5051095;28;20140;-73
2023/08/12 07:07:22;;;;;;;8.00;7.20;;;;;;;22.35;100.00;100461.16;5060600;28;20044;-73
2023/08/12 07:09:52;;;;;;;8.30;7.47;;;;;;;22.75;100.00;100506.75;5050302;28;20037;-73
2023/08/12 07:12:20;;;;;;;9.07;8.07;;;;;;;22.72;100.00;100502.50;5056237;28;20850;-73
2023/08/12 07:14:48;;;;;;;11.95;7.80;;;;;;;22.32;100.00;100472.22;5051806;28;20036;-73
2023/08/12 07:17:17;;;;;;;10.80;7.28;;;;;;;22.45;100.00;100506.97;5046004;28;20071;-73
2023/08/12 07:19:44;;;;;;;8.82;7.93;;;;;;;22.34;100.00;100505.31;5053763;28;20048;-73
2023/08/12 07:22:13;;;;;;;10.10;8.88;;;;;;;22.39;100.00;100503.84;5026872;28;20044;-72
2023/08/12 07:24:41;;;;;;;14.05;9.05;;;;;;;22.46;100.00;100506.84;5050710;28;20044;-73
2023/08/12 07:27:10;;;;;;;9.93;8.73;;;;;;;22.71;100.00;100508.88;5052122;28;20551;-74
2023/08/12 07:29:38;;;;;;;9.80;8.52;;;;;;;22.58;100.00;100502.97;5049885;28;20041;-73
2023/08/12 07:32:06;;;;;;;9.23;8.30;;;;;;;22.55;100.00;100508.66;5058140;28;20045;-73
2023/08/12 07:34:37;;;;;;;11.32;8.73;;;;;;;22.80;100.00;100506.34;5043611;28;20053;-71
2023/08/12 07:37:05;;;;;;;8.93;7.80;;;;;;;23.36;100.00;100509.75;5055130;28;20137;-72
2023/08/12 07:39:32;;;;;;;10.93;8.50;;;;;;;23.64;100.00;100512.44;5050649;28;20142;-74
2023/08/12 07:42:00;;;;;;;11.63;8.95;;;;;;;23.57;100.00;100503.28;5049798;28;20143;-73
2023/08/12 07:44:29;;;;;;;8.27;7.03;;;;;;;23.48;100.00;100477.09;5049762;28;20045;-72
2023/08/12 07:46:57;;;;;;;9.75;8.13;;;;;;;23.88;100.00;100482.97;5041353;28;20170;-72
2023/08/12 07:49:25;;;;;;;13.75;9.35;;;;;;;24.18;100.00;100497.06;5073670;28;20095;-72
2023/08/12 07:51:53;;;;;;;11.80;8.57;;;;;;;24.14;100.00;100501.94;5065600;28;20041;-72
2023/08/12 07:54:22;;;;;;;9.27;7.35;;;;;;;24.56;100.00;100504.81;5057295;28;20195;-72
2023/08/12 07:56:50;;;;;;;8.73;7.28;;;;;;;25.03;100.00;100507.13;5053885;28;20064;-72
2023/08/12 07:59:17;;;;;;;10.35;8.57;;;;;;;25.11;100.00;100497.19;5056834;28;20044;-73
2023/08/12 08:01:49;;;;;;;9.65;8.48;;;;;;;24.67;100.00;100496.44;5061989;28;20045;-70
2023/08/12 08:04:17;;;;;;;13.38;8.63;;;;;;;24.25;100.00;100504.41;5070961;28;20053;-72
2023/08/12 08:06:45;;;;;;;9.85;8.00;;;;;;;23.93;100.00;100496.84;5069437;28;20616;-73
2023/08/12 08:09:17;;;;;;;8.77;7.82;;;;;;;23.89;100.00;100489.22;5062996;28;20049;-74
2023/08/12 08:11:45;;;;;;;12.13;9.27;;;;;;;23.70;100.00;100488.38;5048697;28;20045;-73
2023/08/12 08:14:13;;;;;;;11.65;7.70;;;;;;;23.52;100.00;100494.75;5051295;28;20044;-73
2023/08/12 08:16:42;;;;;;;11.13;8.30;;;;;;;23.59;100.00;100499.41;5057413;28;20060;-74
2023/08/12 08:19:11;;;;;;;8.93;7.20;;;;;;;23.63;100.00;100505.34;5042117;28;20045;-73
2023/08/12 08:21:40;;;;;;;9.20;6.85;;;;;;;23.96;100.00;100503.81;5050213;28;20132;-74
2023/08/12 08:24:11;;;;;;;7.97;5.72;;;;;;;24.46;100.00;100488.69;5052941;28;20505;-74
2023/08/12 08:26:40;;;;;;;12.35;7.65;;;;;;;24.85;100.00;100482.81;5064254;28;20049;-72
2023/08/12 08:29:08;;;;;;;11.35;7.30;;;;;;;24.86;100.00;100481.81;5045875;28;20041;-73
2023/08/12 08:31:39;;;;;;;8.85;7.47;;;;;;;24.73;100.00;100481.38;5073162;28;20114;-73
2023/08/12 08:34:10;;;;;;;10.15;6.82;;;;;;;24.76;100.00;100495.47;5072376;28;20111;-72
2023/08/12 08:36:41;;;;;;;8.27;6.50;;;;;;;25.09;100.00;100501.06;5060446;28;20063;-72
2023/08/12 08:39:10;;;;;;;9.13;6.65;;;;;;;25.18;100.00;100489.28;5079483;28;20048;-73
2023/08/12 08:41:40;;;;;;;8.90;7.05;;;;;;;25.35;100.00;100491.00;5061196;28;20045;-74
2023/08/12 08:44:10;;;;;;;19.75;14.18;;;;;;;25.23;100.00;100489.59;5045462;28;20106;-72
2023/08/12 08:46:38;;;;;;;11.02;7.75;;;;;;;25.07;100.00;100486.84;5057099;28;20045;-73
2023/08/12 08:49:09;;;;;;;8.30;7.40;;;;;;;25.02;100.00;100481.06;5052200;28;20516;-74
2023/08/12 08:51:38;;;;;;;8.70;6.95;;;;;;;25.13;100.00;100492.47;5055567;28;20067;-74
2023/08/12 08:54:09;;;;;;;6.68;6.00;;;;;;;25.31;100.00;100480.66;5046943;28;20051;-74
2023/08/12 08:56:39;;;;;;;9.93;6.22;;;;;;;25.23;100.00;100486.91;5055581;28;20043;-74
2023/08/12 08:59:14;;;;;;;7.90;6.10;;;;;;;25.24;100.00;100487.75;5053115;28;20119;-74
2023/08/12 09:01:45;;;;;;;7.60;6.75;;;;;;;25.60;100.00;100482.94;5050969;28;20386;-72
2023/08/12 09:04:16;;;;;;;7.82;6.25;;;;;;;26.06;100.00;100489.63;5054668;28;20489;-73
2023/08/12 09:06:46;;;;;;;8.27;5.80;;;;;;;26.54;100.00;100484.19;5060284;28;20052;-73
2023/08/12 09:09:17;;;;;;;5.55;4.95;;;;;;;26.73;100.00;100477.53;5048891;28;20056;-73
2023/08/12 09:11:45;;;;;;;9.20;4.90;;;;;;;26.50;100.00;100471.13;5054013;28;20589;-72
2023/08/12 09:14:13;;;;;;;8.35;5.78;;;;;;;26.05;100.00;100434.50;5058955;28;20041;-72
2023/08/12 09:16:43;;;;;;;7.32;5.57;;;;;;;25.90;100.00;100463.34;5053760;28;20051;-74
2023/08/12 09:19:13;;;;;;;5.30;4.80;;;;;;;25.94;100.00;100464.69;5041485;28;20143;-74
2023/08/12 09:21:41;;;;;;;7.32;5.03;;;;;;;26.26;100.00;100454.84;5028285;28;20126;-73
2023/08/12 09:24:12;;;;;;;6.63;5.30;;;;;;;26.35;100.00;100441.09;5057114;28;20102;-73
2023/08/12 09:26:43;;;;;;;5.25;4.32;;;;;;;26.54;100.00;100434.44;5058738;28;20581;-74
2023/08/12 09:29:11;;;;;;;8.52;5.63;;;;;;;26.86;100.00;100466.94;5057120;28;20052;-73
2023/08/12 09:31:39;;;;;;;6.55;5.15;;;;;;;27.06;100.00;100488.31;5057232;28;20032;-72
2023/08/12 09:34:07;;;;;;;6.40;4.72;;;;;;;27.17;100.00;100483.31;5041642;28;20076;-73
2023/08/12 09:36:35;;;;;;;4.78;4.28;;;;;;;27.19;100.00;100483.16;5056989;28;20594;-73
2023/08/12 09:39:10;;;;;;;7.10;4.60;;;;;;;26.64;100.00;100480.41;5048451;28;20070;-72
2023/08/12 09:41:44;;;;;;;6.65;4.32;;;;;;;26.53;100.00;100471.63;5055855;28;20489;-74
2023/08/12 09:44:12;;;;;;;4.57;3.90;;;;;;;26.77;100.00;100459.81;5057949;28;20041;-74
2023/08/12 09:46:40;;;;;;;7.43;4.53;;;;;;;27.09;100.00;100447.16;5053816;28;20041;-74
2023/08/12 09:49:08;;;;;;;6.07;4.07;;;;;;;27.45;100.00;100434.72;5045159;28;20126;-74
2023/08/12 09:51:37;;;;;;;6.97;4.45;;;;;;;27.55;100.00;100434.47;5058168;28;20536;-74
2023/08/12 09:54:05;;;;;;;9.73;5.72;;;;;;;27.36;100.00;100445.84;5052785;28;20056;-74
2023/08/12 09:56:37;;;;;;;5.97;5.40;;;;;;;26.77;100.00;100443.53;5040630;28;20044;-74
2023/08/12 09:59:07;;;;;;;7.90;5.80;;;;;;;26.52;100.00;100447.34;5051041;28;20461;-74
2023/08/12 10:01:36;;;;;;;7.57;5.63;;;;;;;26.52;100.00;100466.38;5043219;28;20083;-74
2023/08/12 10:04:07;;;;;;;5.97;4.32;;;;;;;26.29;100.00;100457.25;5042719;28;20036;-74
2023/08/12 10:06:36;;;;;;;5.90;4.47;;;;;;;26.14;100.00;100463.31;5033072;28;20053;-74
2023/08/12 10:09:08;;;;;;;7.97;4.57;;;;;;;26.08;100.00;100455.88;5062308;28;20394;-73
2023/08/12 10:11:36;;;;;;;6.57;4.80;;;;;;;26.11;100.00;100465.56;5061783;28;20413;-72
2023/08/12 10:14:07;;;;;;;8.27;5.05;;;;;;;26.18;100.00;100477.41;5057608;28;20045;-73
2023/08/12 10:16:36;;;;;;;7.43;5.57;;;;;;;26.01;100.00;100476.56;5059795;28;20048;-73
2023/08/12 10:19:06;;;;;;;6.68;5.65;;;;;;;25.77;100.00;100469.28;5049379;28;20044;-73
2023/08/12 10:21:35;;;;;;;8.63;5.57;;;;;;;25.74;100.00;100498.59;5063883;28;20135;-73
2023/08/12 10:24:04;;;;;;;5.50;4.97;;;;;;;25.64;100.00;100506.88;5058340;28;20040;-72
2023/08/12 10:26:34;;;;;;;6.82;5.10;;;;;;;25.45;100.00;100513.41;5051452;28;20094;-72
2023/08/12 10:29:03;;;;;;;8.48;5.57;;;;;;;25.13;100.00;100524.13;5071295;28;20048;-75
2023/08/12 10:31:33;;;;;;;7.22;5.68;;;;;;;24.60;100.00;100546.81;5036631;28;20055;-74
2023/08/12 10:34:01;;;;;;;9.82;7.00;;;;;;;23.85;100.00;100558.97;5053626;28;20072;-76
2023/08/12 10:36:31;;;;;;;9.40;6.57;;;;;;;23.03;100.00;100567.94;5051325;28;20040;-78
2023/08/12 10:39:00;;;;;;;10.45;7.25;;;;;;;22.42;100.00;100578.28;5046105;28;20138;-78
2023/08/12 10:41:30;;;;;;;10.68;8.07;;;;;;;21.95;100.00;100561.91;5068129;28;20093;-79
2023/08/12 10:44:01;;;;;;;11.60;9.40;;;;;;;21.92;100.00;100575.69;5062028;28;20581;-77
2023/08/12 10:46:34;;;;;;;10.50;8.45;;;;;;;21.69;100.00;100542.75;5041233;28;20068;-76
2023/08/12 10:49:08;;;;;;;11.35;9.50;;;;;;;21.50;100.00;100513.06;5056540;28;20053;-79
2023/08/12 10:51:42;;;;;;;12.93;10.75;;;;;;;21.42;100.00;100517.44;5050500;28;20048;-75
2023/08/12 10:54:15;;;;;;;11.75;10.52;;;;;;;21.37;100.00;100499.00;5041846;28;20045;-74
2023/08/12 10:57:05;;;;;;;15.38;13.00;;;;;;;21.32;100.00;100495.88;5065104;28;20072;-76
2023/08/12 10:59:49;;;;;;;12.55;10.38;;;;;;;21.28;100.00;100494.44;5056903;28;20542;-75
2023/08/12 11:02:18;;;;;;;15.30;10.38;;;;;;;21.26;100.00;100478.41;5057657;28;20041;-77
2023/08/12 11:04:52;;;;;;;14.40;12.82;;;;;;;21.37;100.00;100484.69;5037380;28;20072;-73
2023/08/12 11:07:23;;;;;;;14.65;11.90;;;;;;;21.38;100.00;100481.84;5056513;28;20048;-77
2023/08/12 11:09:53;;;;;;;13.82;11.75;;;;;;;21.35;100.00;100469.50;5033973;28;20037;-76
2023/08/12 11:12:30;;;;;;;12.23;10.55;;;;;;;21.42;100.00;100474.31;5056513;28;20043;-76
2023/08/12 11:15:05;;;;;;;13.13;11.70;;;;;;;21.47;100.00;100469.38;5050714;28;20612;-76
2023/08/12 11:17:35;;;;;;;15.80;13.50;;;;;;;21.58;100.00;100463.84;5052982;28;20045;-77
2023/08/12 11:20:06;;;;;;;;;;;;;;;21.66;100.00;100451.38;5064546;28;20071;-77